createdAt,value
2022-08-14T00:02:03.398Z,6.47
2022-08-14T00:08:51.865Z,7.20
2022-08-14T00:15:44.065Z,7.30
2022-08-14T00:22:56.061Z,7.40
2022-08-14T00:36:36.597Z,7.47
2022-08-14T00:43:33.608Z,7.27
2022-08-14T00:50:26.084Z,7.60
2022-08-14T00:57:13.671Z,7.32
2022-08-14T01:04:05.727Z,7.78
2022-08-14T01:10:54.742Z,7.32
2022-08-14T01:17:53.312Z,7.40
2022-08-14T01:24:41.576Z,8.13
2022-08-14T01:31:36.888Z,7.45
2022-08-14T01:38:23.653Z,7.53
2022-08-14T01:45:17.876Z,7.43
2022-08-14T01:52:33.646Z,7.85
2022-08-14T01:59:26.793Z,7.85
2022-08-14T02:06:32.554Z,7.93
2022-08-14T02:13:20.948Z,8.55
2022-08-14T02:20:10.713Z,8.95
2022-08-14T02:28:25.302Z,8.57
2022-08-14T02:34:14.721Z,8.77
2022-08-14T02:41:11.544Z,8.88
2022-08-14T03:01:50.415Z,8.60
2022-08-14T03:08:46.145Z,9.20
2022-08-14T03:15:32.970Z,9.00
2022-08-14T03:22:22.484Z,9.50
2022-08-14T03:29:15.502Z,10.05
2022-08-14T03:37:15.449Z,9.40
2022-08-14T03:43:11.669Z,9.77
2022-08-14T03:49:57.226Z,9.77
2022-08-14T03:56:45.247Z,10.00
2022-08-14T04:03:38.340Z,8.93
2022-08-14T04:10:31.607Z,9.57
2022-08-14T04:17:17.898Z,10.05
2022-08-14T04:24:07.179Z,9.50
2022-08-14T04:30:52.712Z,10.77
2022-08-14T04:37:57.414Z,9.75
2022-08-14T04:44:48.839Z,9.32
2022-08-14T04:51:46.252Z,9.88
2022-08-14T04:58:40.200Z,9.23
2022-08-14T05:05:28.868Z,9.80
2022-08-14T05:13:13.652Z,9.90
2022-08-14T05:19:29.001Z,10.00
2022-08-14T05:26:18.353Z,10.25
2022-08-14T05:33:04.071Z,10.35
2022-08-14T05:39:49.833Z,9.98
2022-08-14T05:46:39.105Z,9.93
2022-08-14T05:53:24.712Z,9.60
2022-08-14T06:00:28.360Z,10.95
2022-08-14T06:07:18.349Z,10.00
2022-08-14T06:14:12.377Z,10.85
2022-08-14T06:21:13.013Z,10.00
2022-08-14T06:28:03.869Z,10.32
2022-08-14T06:35:04.755Z,9.63
2022-08-14T06:41:57.912Z,9.55
2022-08-14T06:48:47.838Z,9.20
2022-08-14T06:55:34.461Z,8.85
2022-08-14T07:02:35.986Z,9.32
2022-08-14T07:09:24.348Z,9.32
2022-08-14T07:16:13.128Z,9.32
2022-08-14T07:23:07.302Z,9.57
2022-08-14T07:29:56.982Z,8.98
2022-08-14T07:36:57.957Z,9.20
2022-08-14T07:43:47.646Z,9.60
2022-08-14T07:50:45.397Z,9.50
2022-08-14T07:57:30.997Z,8.93
2022-08-14T08:04:24.011Z,8.98
2022-08-14T08:11:15.201Z,9.32
2022-08-14T08:18:01.422Z,8.63
2022-08-14T08:24:50.566Z,8.25
2022-08-14T08:31:51.940Z,7.78
2022-08-14T08:39:18.837Z,7.70
2022-08-14T08:45:44.021Z,8.23
2022-08-14T08:52:32.485Z,8.07
2022-08-14T08:59:31.417Z,8.98
2022-08-14T09:06:53.936Z,9.13
2022-08-14T09:13:30.710Z,8.32
2022-08-14T09:20:26.025Z,8.25
2022-08-14T09:27:16.563Z,8.73
2022-08-14T09:34:27.389Z,7.57
2022-08-14T09:42:21.772Z,7.78
2022-08-14T09:48:40.532Z,7.88
2022-08-14T09:55:41.289Z,7.30
2022-08-14T10:02:30.217Z,7.70
2022-08-14T10:09:16.904Z,7.60
2022-08-14T10:16:06.004Z,7.60
2022-08-14T10:23:18.607Z,7.15
2022-08-14T10:30:05.277Z,7.38
2022-08-14T10:37:14.101Z,7.03
2022-08-14T10:44:21.604Z,7.63
2022-08-14T10:51:08.609Z,6.75
2022-08-14T10:57:59.916Z,8.05
2022-08-14T11:04:48.001Z,7.60
2022-08-14T11:11:37.086Z,7.20
2022-08-14T11:18:32.103Z,7.22
2022-08-14T11:25:24.057Z,6.75
2022-08-14T11:32:11.574Z,7.22
2022-08-14T11:38:59.958Z,6.95
2022-08-14T11:45:50.560Z,6.90
2022-08-14T11:52:40.330Z,6.57
2022-08-14T11:59:33.590Z,6.78
2022-08-14T12:06:28.495Z,6.00
2022-08-14T12:13:22.329Z,6.05
2022-08-14T12:20:12.568Z,6.13
2022-08-14T12:27:01.048Z,6.28
2022-08-14T12:33:59.880Z,6.15
2022-08-14T12:40:56.112Z,6.18
2022-08-14T12:47:42.468Z,5.90
2022-08-14T12:54:32.146Z,5.38
2022-08-14T13:01:26.220Z,5.65
2022-08-14T13:08:33.531Z,5.45
2022-08-14T13:15:19.687Z,5.63
2022-08-14T13:22:10.065Z,5.30
2022-08-14T13:29:06.610Z,6.28
2022-08-14T13:35:56.422Z,5.70
2022-08-14T13:42:48.411Z,5.97
2022-08-14T13:49:57.832Z,6.30
2022-08-14T13:56:45.301Z,5.80
2022-08-14T14:03:39.579Z,5.90
2022-08-14T14:10:28.287Z,6.15
2022-08-14T14:17:16.201Z,6.10
2022-08-14T14:24:05.553Z,5.53
2022-08-14T14:30:53.009Z,6.28
2022-08-14T14:37:41.868Z,6.53
2022-08-14T14:44:40.625Z,5.88
2022-08-14T14:51:26.221Z,6.50
2022-08-14T14:58:15.583Z,6.10
2022-08-14T15:05:10.832Z,6.40
2022-08-14T15:11:59.487Z,6.63
2022-08-14T15:18:49.201Z,6.30
2022-08-14T15:25:37.725Z,6.10
2022-08-14T15:32:24.038Z,6.80
2022-08-14T15:39:10.037Z,7.20
2022-08-14T15:45:59.333Z,6.45
2022-08-14T15:52:46.721Z,6.13
2022-08-14T15:59:53.929Z,6.97
2022-08-14T16:06:42.194Z,6.63
2022-08-14T16:13:39.713Z,6.50
2022-08-14T16:20:41.895Z,6.60
2022-08-14T16:27:40.887Z,6.22
2022-08-14T16:34:46.033Z,6.20
2022-08-14T16:41:34.883Z,6.43
2022-08-14T16:48:57.201Z,6.63
2022-08-14T16:55:30.284Z,6.50
2022-08-14T17:02:18.880Z,6.10
2022-08-14T17:09:08.581Z,6.72
2022-08-14T17:16:10.559Z,5.72
2022-08-14T17:23:11.322Z,5.80
2022-08-14T17:29:59.508Z,6.03
2022-08-14T17:36:53.946Z,6.15
2022-08-14T17:43:42.068Z,5.40
2022-08-14T17:51:00.405Z,5.60
2022-08-14T17:57:46.912Z,5.70
2022-08-14T18:04:38.629Z,5.93
2022-08-14T18:11:45.581Z,6.15
2022-08-14T18:18:33.160Z,5.80
2022-08-14T18:25:22.747Z,5.75
2022-08-14T18:32:55.525Z,6.20
2022-08-14T18:40:02.399Z,5.78
2022-08-14T18:47:32.622Z,5.90
2022-08-14T18:54:40.161Z,6.22
2022-08-14T19:01:34.098Z,6.65
2022-08-14T19:08:30.681Z,6.55
2022-08-14T19:15:25.731Z,7.30
2022-08-14T19:22:29.939Z,6.35
2022-08-14T19:36:29.057Z,7.30
2022-08-14T19:43:55.113Z,6.97
2022-08-14T19:50:40.556Z,6.75
2022-08-14T19:57:29.526Z,7.13
2022-08-14T20:04:47.761Z,6.97
2022-08-14T20:12:00.120Z,6.78
2022-08-14T20:18:49.963Z,7.45
2022-08-14T20:25:45.409Z,7.97
2022-08-14T20:32:51.849Z,7.97
2022-08-14T20:39:45.054Z,7.85
2022-08-14T20:46:42.411Z,7.30
2022-08-14T20:53:35.744Z,8.00
2022-08-14T21:00:52.575Z,8.27
2022-08-14T21:07:44.287Z,7.43
2022-08-14T21:14:36.092Z,6.80
2022-08-14T21:21:41.332Z,6.70
2022-08-14T21:28:35.798Z,7.30
2022-08-14T21:35:23.276Z,6.93
2022-08-14T21:42:10.904Z,7.15
2022-08-14T21:48:59.740Z,6.05
2022-08-14T21:55:46.623Z,5.82
2022-08-14T22:02:33.606Z,5.57
2022-08-14T22:09:29.415Z,5.93
2022-08-14T22:17:03.474Z,5.90
2022-08-14T22:23:30.064Z,5.60
2022-08-14T22:30:20.307Z,6.07
2022-08-14T22:37:06.296Z,5.47
2022-08-14T22:43:52.327Z,5.43
2022-08-14T22:50:48.995Z,5.25
2022-08-14T22:57:42.106Z,5.60
2022-08-14T23:04:35.667Z,5.22
2022-08-14T23:11:30.703Z,5.55
2022-08-14T23:18:17.123Z,5.40
2022-08-14T23:25:09.962Z,5.40
2022-08-14T23:31:59.304Z,5.18
2022-08-14T23:38:45.172Z,5.22
2022-08-14T23:45:36.502Z,5.50
2022-08-14T23:52:56.133Z,5.70
2022-08-14T23:59:31.702Z,6.30
